createdAt,value
2023-03-05T00:00:39.938Z,1.65
2023-03-05T00:01:39.959Z,1.66
2023-03-05T00:02:40.023Z,1.66
2023-03-05T00:03:40.030Z,1.64
2023-03-05T00:04:39.969Z,1.64
2023-03-05T00:05:39.967Z,1.63
2023-03-05T00:06:39.973Z,1.64
2023-03-05T00:07:39.978Z,1.66
2023-03-05T00:08:39.982Z,1.67
2023-03-05T00:09:39.996Z,1.67
2023-03-05T00:10:39.999Z,1.68
2023-03-05T00:11:40.010Z,1.66
2023-03-05T00:12:40.010Z,1.68
2023-03-05T00:13:40.026Z,1.67
2023-03-05T00:14:40.023Z,1.70
2023-03-05T00:15:40.058Z,1.71
2023-03-05T00:16:40.053Z,1.71
2023-03-05T00:17:40.044Z,1.72
2023-03-05T00:18:40.048Z,1.74
2023-03-05T00:19:40.049Z,1.74
2023-03-05T00:20:40.062Z,1.75
2023-03-05T00:21:40.080Z,1.74
2023-03-05T00:22:40.077Z,1.74
2023-03-05T00:23:40.079Z,1.73
2023-03-05T00:24:40.083Z,1.76
2023-03-05T00:25:40.091Z,1.79
2023-03-05T00:26:40.097Z,1.75
2023-03-05T00:27:40.104Z,1.77
2023-03-05T00:28:40.110Z,1.77
2023-03-05T00:29:40.117Z,1.74
2023-03-05T00:30:40.124Z,1.72
2023-03-05T00:31:40.196Z,1.70
2023-03-05T00:32:40.219Z,1.71
2023-03-05T00:33:40.143Z,1.69
2023-03-05T00:34:40.152Z,1.68
2023-03-05T00:35:40.187Z,1.70
2023-03-05T00:36:40.165Z,1.73
2023-03-05T00:37:40.167Z,1.74
2023-03-05T00:38:40.174Z,1.75
2023-03-05T00:39:40.179Z,1.78
2023-03-05T00:40:40.293Z,1.80
2023-03-05T00:41:40.202Z,1.80
2023-03-05T00:42:40.206Z,1.79
2023-03-05T00:43:40.211Z,1.78
2023-03-05T00:44:40.222Z,1.78
2023-03-05T00:45:40.225Z,1.77
2023-03-05T00:46:40.354Z,1.79
2023-03-05T00:47:40.239Z,1.80
2023-03-05T00:48:40.240Z,1.77
2023-03-05T00:49:40.246Z,1.81
2023-03-05T00:50:40.251Z,1.82
2023-03-05T00:51:40.259Z,1.82
2023-03-05T00:52:40.272Z,1.82
2023-03-05T00:53:40.273Z,1.81
2023-03-05T00:54:40.282Z,1.76
2023-03-05T00:55:40.281Z,1.75
2023-03-05T00:56:40.288Z,1.74
2023-03-05T00:57:40.295Z,1.72
2023-03-05T00:58:40.321Z,1.72
2023-03-05T00:59:40.306Z,1.71
2023-03-05T01:00:40.315Z,1.68
2023-03-05T01:01:40.344Z,1.68
2023-03-05T01:02:40.325Z,1.65
2023-03-05T01:03:40.333Z,1.65
2023-03-05T01:04:40.330Z,1.64
2023-03-05T01:05:40.412Z,1.62
2023-03-05T01:06:40.335Z,1.59
2023-03-05T01:07:40.337Z,1.56
2023-03-05T01:08:40.343Z,1.52
2023-03-05T01:09:40.366Z,1.50
2023-03-05T01:10:40.371Z,1.49
2023-03-05T01:11:40.390Z,1.43
2023-03-05T01:12:40.382Z,1.40
2023-03-05T01:13:40.427Z,1.38
2023-03-05T01:14:40.391Z,1.35
2023-03-05T01:15:40.412Z,1.35
2023-03-05T01:16:40.404Z,1.36
2023-03-05T01:17:40.408Z,1.33
2023-03-05T01:35:40.848Z,0.91
2023-03-05T01:36:40.584Z,0.87
2023-03-05T01:37:40.587Z,0.84
2023-03-05T01:38:40.605Z,0.86
2023-03-05T01:39:40.602Z,0.86
2023-03-05T01:40:40.611Z,0.83
2023-03-05T01:41:40.613Z,0.83
2023-03-05T01:42:40.620Z,0.82
2023-03-05T01:43:40.628Z,0.81
2023-03-05T01:44:40.632Z,0.82
2023-03-05T01:45:40.665Z,0.83
2023-03-05T01:46:40.646Z,0.85
2023-03-05T01:47:40.681Z,0.85
2023-03-05T01:48:40.661Z,0.88
2023-03-05T01:49:40.667Z,0.89
2023-03-05T01:50:40.680Z,0.89
2023-03-05T01:51:40.681Z,0.90
2023-03-05T01:52:40.689Z,0.91
2023-03-05T01:53:40.693Z,0.92
2023-03-05T01:54:40.702Z,0.93
2023-03-05T01:55:40.706Z,0.94
2023-03-05T01:56:40.711Z,0.93
2023-03-05T01:57:40.717Z,0.93
2023-03-05T01:58:40.723Z,0.93
2023-03-05T01:59:40.731Z,0.97
2023-03-05T02:00:40.750Z,0.99
2023-03-05T02:01:40.744Z,1.01
2023-03-05T02:02:40.749Z,1.03
2023-03-05T02:03:40.769Z,1.08
2023-03-05T02:04:40.760Z,1.12
2023-03-05T02:05:40.766Z,1.12
2023-03-05T02:06:40.771Z,1.07
2023-03-05T02:07:40.780Z,1.02
2023-03-05T02:08:40.784Z,1.01
2023-03-05T02:09:40.789Z,1.01
2023-03-05T02:10:40.796Z,1.00
2023-03-05T02:11:40.807Z,0.99
2023-03-05T02:12:40.811Z,0.99
2023-03-05T02:13:40.831Z,0.98
2023-03-05T02:14:40.826Z,0.96
2023-03-05T02:15:40.831Z,0.96
2023-03-05T02:16:40.870Z,0.92
2023-03-05T02:17:40.845Z,0.91
2023-03-05T02:18:40.851Z,0.92
2023-03-05T02:19:40.857Z,0.93
2023-03-05T02:20:40.867Z,0.91
2023-03-05T02:21:40.869Z,0.90
2023-03-05T02:22:40.876Z,0.89
2023-03-05T02:23:40.885Z,0.87
2023-03-05T02:24:40.888Z,0.83
2023-03-05T02:25:40.894Z,0.78
2023-03-05T02:26:40.902Z,0.76
2023-03-05T02:27:40.912Z,0.74
2023-03-05T02:28:40.915Z,0.72
2023-03-05T02:29:40.940Z,0.71
2023-03-05T02:30:40.934Z,0.69
2023-03-05T02:31:40.949Z,0.68
2023-03-05T02:32:40.965Z,0.67
2023-03-05T02:33:40.969Z,0.67
2023-03-05T02:34:40.965Z,0.65
2023-03-05T02:35:41.003Z,0.67
2023-03-05T02:36:40.985Z,0.66
2023-03-05T02:37:40.981Z,0.68
2023-03-05T02:38:40.989Z,0.69
2023-03-05T02:39:40.996Z,0.74
2023-03-05T02:40:41.012Z,0.79
2023-03-05T02:41:41.014Z,0.80
2023-03-05T02:42:41.013Z,0.82
2023-03-05T02:43:41.017Z,0.84
2023-03-05T02:44:41.029Z,0.84
2023-03-05T02:45:41.085Z,0.90
2023-03-05T02:46:41.038Z,0.90
2023-03-05T02:47:41.060Z,0.91
2023-03-05T02:48:41.058Z,0.90
2023-03-05T02:49:41.058Z,0.90
2023-03-05T02:50:41.064Z,0.90
2023-03-05T02:51:41.070Z,0.89
2023-03-05T02:52:41.081Z,0.86
2023-03-05T02:53:41.083Z,0.86
2023-03-05T02:54:41.089Z,0.86
2023-03-05T02:55:41.095Z,0.85
2023-03-05T02:56:41.102Z,0.87
2023-03-05T02:57:41.122Z,0.87
2023-03-05T02:58:41.118Z,0.87
2023-03-05T02:59:41.194Z,0.88
2023-03-05T03:00:41.131Z,0.91
2023-03-05T03:01:41.164Z,0.92
2023-03-05T03:02:41.144Z,0.95
2023-03-05T03:03:41.150Z,0.93
2023-03-05T03:04:41.158Z,0.95
2023-03-05T03:05:41.164Z,0.93
2023-03-05T03:06:41.168Z,0.91
2023-03-05T03:07:41.175Z,0.85
2023-03-05T03:08:41.181Z,0.81
2023-03-05T03:09:41.189Z,0.80
2023-03-05T03:10:41.206Z,0.77
2023-03-05T03:11:41.201Z,0.76
2023-03-05T03:12:41.207Z,0.78
2023-03-05T03:13:41.212Z,0.81
2023-03-05T03:14:41.281Z,0.83
2023-03-05T03:15:41.230Z,0.84
2023-03-05T03:16:41.319Z,0.84
2023-03-05T03:17:41.242Z,0.83
2023-03-05T03:18:41.248Z,0.78
2023-03-05T03:19:41.253Z,0.78
2023-03-05T03:20:41.258Z,0.77
2023-03-05T03:21:41.275Z,0.79
2023-03-05T03:22:41.275Z,0.82
2023-03-05T03:23:41.281Z,0.85
2023-03-05T03:24:41.289Z,0.80
2023-03-05T03:25:41.298Z,0.79
2023-03-05T03:26:41.305Z,0.80
2023-03-05T03:27:41.317Z,0.84
2023-03-05T03:28:41.327Z,0.85
2023-03-05T03:29:41.324Z,0.85
2023-03-05T03:30:41.364Z,0.83
2023-03-05T03:31:41.337Z,0.80
2023-03-05T03:32:41.344Z,0.75
2023-03-05T03:33:41.359Z,0.67
2023-03-05T03:34:41.357Z,0.60
2023-03-05T03:35:41.408Z,0.57
2023-03-05T03:36:41.376Z,0.50
2023-03-05T03:37:41.380Z,0.39
2023-03-05T03:38:41.404Z,0.31
2023-03-05T03:39:41.409Z,0.26
2023-03-05T03:40:41.422Z,0.20
2023-03-05T03:41:41.426Z,0.16
2023-03-05T03:42:41.440Z,0.14
2023-03-05T03:43:41.441Z,0.15
2023-03-05T03:44:41.448Z,0.14
2023-03-05T03:45:41.455Z,0.13
2023-03-05T03:46:41.462Z,0.14
2023-03-05T03:47:41.470Z,0.12
2023-03-05T03:48:41.477Z,0.12
2023-03-05T03:49:41.483Z,0.08
2023-03-05T03:50:41.491Z,0.05
2023-03-05T03:51:41.511Z,0.03
2023-03-05T03:52:41.505Z,0.00
2023-03-05T03:53:41.512Z,-0.01
2023-03-05T03:54:41.530Z,-0.01
2023-03-05T03:55:41.526Z,0.01
2023-03-05T03:56:41.532Z,0.03
2023-03-05T03:57:41.545Z,0.04
2023-03-05T03:58:41.546Z,0.05
2023-03-05T03:59:41.550Z,0.06
2023-03-05T04:00:41.619Z,0.08
2023-03-05T04:01:41.590Z,0.09
2023-03-05T04:02:41.597Z,0.11
2023-03-05T04:03:41.579Z,0.13
2023-03-05T04:04:41.643Z,0.17
2023-03-05T04:05:41.592Z,0.20
2023-03-05T04:06:41.611Z,0.23
2023-03-05T04:07:41.608Z,0.23
2023-03-05T04:08:41.617Z,0.26
2023-03-05T04:09:41.624Z,0.28
2023-03-05T04:10:41.627Z,0.25
2023-03-05T04:11:41.639Z,0.25
2023-03-05T04:12:41.642Z,0.23
2023-03-05T04:13:41.653Z,0.25
2023-03-05T04:14:41.650Z,0.28
2023-03-05T04:15:41.687Z,0.33
2023-03-05T04:16:41.662Z,0.37
2023-03-05T04:17:41.674Z,0.42
2023-03-05T04:18:41.676Z,0.41
2023-03-05T04:19:41.690Z,0.38
2023-03-05T04:20:41.696Z,0.36
2023-03-05T04:21:41.712Z,0.37
2023-03-05T04:22:41.712Z,0.38
2023-03-05T04:23:41.729Z,0.36
2023-03-05T04:24:41.725Z,0.34
2023-03-05T04:25:41.738Z,0.35
2023-03-05T04:26:41.740Z,0.36
2023-03-05T04:27:41.741Z,0.37
2023-03-05T04:28:41.746Z,0.37
2023-03-05T04:29:41.752Z,0.39
2023-03-05T04:30:41.765Z,0.37
2023-03-05T04:31:41.764Z,0.39
2023-03-05T04:32:41.769Z,0.40
2023-03-05T04:33:41.775Z,0.41
2023-03-05T04:34:41.784Z,0.40
2023-03-05T04:35:41.810Z,0.41
2023-03-05T04:36:41.801Z,0.39
2023-03-05T04:37:41.810Z,0.39
2023-03-05T04:38:41.812Z,0.41
2023-03-05T04:39:41.819Z,0.41
2023-03-05T04:40:41.831Z,0.42
2023-03-05T04:41:41.831Z,0.42
2023-03-05T04:42:41.838Z,0.41
2023-03-05T04:43:41.867Z,0.40
2023-03-05T04:44:41.852Z,0.37
2023-03-05T04:45:41.858Z,0.34
2023-03-05T04:46:41.928Z,0.35
2023-03-05T04:47:41.869Z,0.33
2023-03-05T04:48:41.875Z,0.33
2023-03-05T04:49:41.883Z,0.33
2023-03-05T04:50:41.892Z,0.33
2023-03-05T04:51:41.895Z,0.33
2023-03-05T04:52:41.902Z,0.35
2023-03-05T04:53:41.909Z,0.32
2023-03-05T04:54:41.915Z,0.31
2023-03-05T04:55:41.921Z,0.31
2023-03-05T04:56:41.927Z,0.31
2023-03-05T04:57:41.933Z,0.33
2023-03-05T04:58:41.938Z,0.34
2023-03-05T04:59:41.946Z,0.33
2023-03-05T05:00:41.953Z,0.34
2023-03-05T05:01:41.997Z,0.34
2023-03-05T05:02:41.991Z,0.33
2023-03-05T05:03:41.997Z,0.32
2023-03-05T05:04:41.983Z,0.31
2023-03-05T05:05:41.990Z,0.32
2023-03-05T05:06:42.001Z,0.30
2023-03-05T05:07:42.010Z,0.28
2023-03-05T05:08:42.012Z,0.28
2023-03-05T05:09:42.021Z,0.27
2023-03-05T05:10:42.032Z,0.23
2023-03-05T05:11:42.037Z,0.21
2023-03-05T05:12:42.053Z,0.21
2023-03-05T05:13:42.051Z,0.19
2023-03-05T05:14:42.054Z,0.21
2023-03-05T05:15:42.072Z,0.18
2023-03-05T05:16:42.064Z,0.17
2023-03-05T05:17:42.070Z,0.16
2023-03-05T05:18:42.078Z,0.17
2023-03-05T05:19:42.152Z,0.17
2023-03-05T05:20:42.095Z,0.18
2023-03-05T05:21:42.102Z,0.21
2023-03-05T05:22:42.111Z,0.26
2023-03-05T05:23:42.119Z,0.24
2023-03-05T05:24:42.124Z,0.28
2023-03-05T05:25:42.141Z,0.30
2023-03-05T05:26:42.145Z,0.32
2023-03-05T05:27:42.152Z,0.31
2023-03-05T05:28:42.155Z,0.30
2023-03-05T05:29:42.165Z,0.29
2023-03-05T05:30:42.171Z,0.30
2023-03-05T05:31:42.243Z,0.33
2023-03-05T05:32:42.236Z,0.33
2023-03-05T05:33:42.201Z,0.33
2023-03-05T05:34:42.202Z,0.32
2023-03-05T05:35:42.261Z,0.30
2023-03-05T05:36:42.227Z,0.33
2023-03-05T05:37:42.237Z,0.33
2023-03-05T05:38:42.250Z,0.37
2023-03-05T05:39:42.256Z,0.40
2023-03-05T05:40:42.264Z,0.38
2023-03-05T05:41:42.279Z,0.39
2023-03-05T05:42:42.283Z,0.39
2023-03-05T05:43:42.293Z,0.39
2023-03-05T05:44:42.304Z,0.39
2023-03-05T05:45:42.491Z,0.40
2023-03-05T05:46:42.380Z,0.41
2023-03-05T05:47:42.328Z,0.39
2023-03-05T05:48:42.335Z,0.36
2023-03-05T05:49:42.347Z,0.33
2023-03-05T05:50:42.352Z,0.32
2023-03-05T05:51:42.361Z,0.31
2023-03-05T05:52:42.391Z,0.32
2023-03-05T05:53:42.383Z,0.32
2023-03-05T05:54:42.403Z,0.30
2023-03-05T05:55:42.393Z,0.31
2023-03-05T05:56:42.395Z,0.34
2023-03-05T05:57:42.403Z,0.37
2023-03-05T05:58:42.412Z,0.39
2023-03-05T05:59:42.422Z,0.41
2023-03-05T06:00:42.426Z,0.46
2023-03-05T06:01:42.454Z,0.50
2023-03-05T06:02:42.513Z,0.54
2023-03-05T06:03:42.458Z,0.56
2023-03-05T06:04:42.476Z,0.60
2023-03-05T06:05:42.471Z,0.60
2023-03-05T06:06:42.475Z,0.64
2023-03-05T06:07:42.490Z,0.69
2023-03-05T06:08:42.500Z,0.72
2023-03-05T06:09:42.503Z,0.69
2023-03-05T06:10:42.511Z,0.70
2023-03-05T06:11:42.526Z,0.71
2023-03-05T06:12:42.526Z,0.73
2023-03-05T06:13:42.534Z,0.77
2023-03-05T06:14:42.540Z,0.79
2023-03-05T06:15:42.548Z,0.75
2023-03-05T06:16:42.622Z,0.68
2023-03-05T06:17:42.559Z,0.61
2023-03-05T06:18:42.568Z,0.55
2023-03-05T06:19:42.575Z,0.53
2023-03-05T06:20:42.580Z,0.53
2023-03-05T06:21:42.585Z,0.50
2023-03-05T06:22:42.594Z,0.51
2023-03-05T06:23:42.600Z,0.53
2023-03-05T06:24:42.606Z,0.58
2023-03-05T06:25:42.617Z,0.59
2023-03-05T06:26:42.634Z,0.60
2023-03-05T06:27:42.636Z,0.63
2023-03-05T06:28:42.643Z,0.63
2023-03-05T06:29:42.648Z,0.66
2023-03-05T06:30:42.667Z,0.67
2023-03-05T06:31:42.658Z,0.61
2023-03-05T06:32:42.677Z,0.55
2023-03-05T06:33:42.688Z,0.54
2023-03-05T06:34:42.682Z,0.53
2023-03-05T06:35:42.767Z,0.53
2023-03-05T06:36:42.702Z,0.53
2023-03-05T06:37:42.712Z,0.54
2023-03-05T06:38:42.719Z,0.57
2023-03-05T06:39:42.726Z,0.59
2023-03-05T06:40:42.734Z,0.60
2023-03-05T06:41:42.743Z,0.57
2023-03-05T06:42:42.752Z,0.54
2023-03-05T06:43:42.761Z,0.53
2023-03-05T06:44:42.767Z,0.56
2023-03-05T06:45:43.052Z,0.54
2023-03-05T06:46:42.787Z,0.58
2023-03-05T06:47:42.798Z,0.58
2023-03-05T06:48:42.801Z,0.61
2023-03-05T06:49:42.825Z,0.63
2023-03-05T06:50:42.819Z,0.61
2023-03-05T06:51:42.825Z,0.64
2023-03-05T06:52:42.841Z,0.67
2023-03-05T06:53:42.849Z,0.69
2023-03-05T06:54:42.855Z,0.69
2023-03-05T06:55:42.864Z,0.71
2023-03-05T06:56:42.876Z,0.72
2023-03-05T06:57:42.885Z,0.77
2023-03-05T06:58:42.888Z,0.84
2023-03-05T06:59:42.894Z,0.87
2023-03-05T07:00:42.898Z,0.90
2023-03-05T07:01:42.905Z,0.91
2023-03-05T07:02:42.965Z,0.91
2023-03-05T07:03:42.927Z,0.93
2023-03-05T07:04:42.926Z,0.98
2023-03-05T07:05:42.934Z,1.04
2023-03-05T07:06:42.940Z,1.06
2023-03-05T07:07:42.948Z,1.10
2023-03-05T07:08:42.954Z,1.09
2023-03-05T07:09:42.960Z,1.11
2023-03-05T07:10:42.964Z,1.10
2023-03-05T07:11:42.971Z,1.08
2023-03-05T07:12:43.643Z,1.10
2023-03-05T07:13:42.988Z,1.13
2023-03-05T07:14:42.998Z,1.11
2023-03-05T07:15:43.038Z,1.11
2023-03-05T07:16:43.016Z,1.07
2023-03-05T07:17:43.023Z,1.08
2023-03-05T07:18:43.051Z,1.08
2023-03-05T07:19:43.045Z,1.08
2023-03-05T07:20:43.052Z,1.10
2023-03-05T07:21:43.055Z,1.13
2023-03-05T07:22:43.064Z,1.14
2023-03-05T07:23:43.070Z,1.19
2023-03-05T07:24:43.079Z,1.21
2023-03-05T07:25:43.093Z,1.29
2023-03-05T07:26:43.089Z,1.36
2023-03-05T07:27:43.098Z,1.39
2023-03-05T07:28:43.111Z,1.43
2023-03-05T07:29:43.111Z,1.46
2023-03-05T07:30:43.149Z,1.48
2023-03-05T07:31:43.133Z,1.45
2023-03-05T07:32:43.145Z,1.50
2023-03-05T07:33:43.169Z,1.57
2023-03-05T07:34:43.158Z,1.58
2023-03-05T07:35:43.195Z,1.64
2023-03-05T07:36:43.174Z,1.70
2023-03-05T07:37:43.179Z,1.70
2023-03-05T07:38:43.184Z,1.69
2023-03-05T07:39:43.859Z,1.66
2023-03-05T07:40:43.203Z,1.60
2023-03-05T07:41:43.215Z,1.54
2023-03-05T07:42:43.284Z,1.55
2023-03-05T07:43:43.231Z,1.59
2023-03-05T07:44:43.241Z,1.63
2023-03-05T07:45:43.244Z,1.68
2023-03-05T07:46:43.253Z,1.69
2023-03-05T07:47:43.265Z,1.77
2023-03-05T07:48:43.271Z,1.83
2023-03-05T07:49:43.277Z,1.89
2023-03-05T07:50:43.285Z,1.88
2023-03-05T07:51:43.295Z,1.86
2023-03-05T07:52:43.303Z,1.87
2023-03-05T07:53:43.308Z,1.92
2023-03-05T07:54:43.319Z,1.93
2023-03-05T07:55:43.328Z,1.94
2023-03-05T07:56:43.337Z,1.89
2023-03-05T07:57:43.342Z,1.88
2023-03-05T07:58:44.467Z,1.88
2023-03-05T07:59:43.366Z,1.96
2023-03-05T08:00:43.375Z,1.93
2023-03-05T08:01:43.374Z,1.91
2023-03-05T08:02:43.497Z,1.95
2023-03-05T08:03:43.450Z,1.94
2023-03-05T08:04:43.442Z,1.95
2023-03-05T08:05:43.415Z,1.95
2023-03-05T08:06:43.473Z,1.95
2023-03-05T08:07:43.435Z,2.01
2023-03-05T08:08:43.455Z,2.04
2023-03-05T08:09:43.461Z,2.09
2023-03-05T08:10:43.459Z,2.09
2023-03-05T08:11:43.499Z,2.07
2023-03-05T08:12:43.473Z,2.17
2023-03-05T08:13:43.480Z,2.24
2023-03-05T08:14:43.509Z,2.29
2023-03-05T08:15:43.525Z,2.37
2023-03-05T08:16:43.510Z,2.42
2023-03-05T08:17:43.520Z,2.39
2023-03-05T08:18:43.531Z,2.43
2023-03-05T08:19:43.534Z,2.47
2023-03-05T08:20:43.539Z,2.47
2023-03-05T08:21:43.550Z,2.37
2023-03-05T08:22:43.556Z,2.33
2023-03-05T08:23:43.562Z,2.32
2023-03-05T08:24:43.570Z,2.34
2023-03-05T08:25:43.577Z,2.34
2023-03-05T08:26:43.588Z,2.36
2023-03-05T08:27:43.603Z,2.31
2023-03-05T08:28:43.606Z,2.34
2023-03-05T08:29:43.612Z,2.37
2023-03-05T08:30:43.623Z,2.47
2023-03-05T08:31:43.654Z,2.46
2023-03-05T08:32:43.632Z,2.43
2023-03-05T08:33:43.640Z,2.43
2023-03-05T08:34:43.649Z,2.42
2023-03-05T08:35:43.710Z,2.45
2023-03-05T08:36:43.665Z,2.41
2023-03-05T08:37:43.672Z,2.47
2023-03-05T08:38:43.676Z,2.47
2023-03-05T08:39:43.684Z,2.46
2023-03-05T08:40:43.691Z,2.42
2023-03-05T08:41:43.705Z,2.43
2023-03-05T08:42:43.702Z,2.40
2023-03-05T08:43:43.707Z,2.42
2023-03-05T08:44:43.718Z,2.50
2023-03-05T08:45:43.728Z,2.58
2023-03-05T08:46:43.761Z,2.66
2023-03-05T08:47:43.747Z,2.61
2023-03-05T08:48:43.755Z,2.62
2023-03-05T08:49:43.763Z,2.67
2023-03-05T08:50:43.773Z,2.72
2023-03-05T08:51:43.781Z,2.73
2023-03-05T08:52:43.788Z,2.74
2023-03-05T08:53:43.796Z,2.81
2023-03-05T08:54:43.806Z,2.87
2023-03-05T08:55:44.266Z,2.93
2023-03-05T08:56:43.818Z,2.98
2023-03-05T08:57:43.830Z,3.03
2023-03-05T08:58:43.856Z,3.10
2023-03-05T08:59:43.846Z,3.12
2023-03-05T09:00:43.852Z,3.06
2023-03-05T09:01:43.922Z,3.02
2023-03-05T09:02:43.923Z,3.04
2023-03-05T09:03:43.885Z,3.06
2023-03-05T09:04:43.889Z,3.05
2023-03-05T09:05:43.899Z,3.11
2023-03-05T09:06:43.921Z,3.04
2023-03-05T09:07:43.915Z,3.02
2023-03-05T09:08:43.924Z,3.03
2023-03-05T09:09:43.933Z,2.97
2023-03-05T09:10:43.943Z,2.94
2023-03-05T09:11:43.967Z,2.90
2023-03-05T09:12:43.952Z,2.90
2023-03-05T09:13:43.973Z,2.92
2023-03-05T09:14:43.976Z,2.88
2023-03-05T09:15:43.985Z,2.89
2023-03-05T09:16:44.041Z,2.94
2023-03-05T09:17:44.004Z,2.98
2023-03-05T09:18:44.010Z,3.05
2023-03-05T09:19:44.017Z,3.15
2023-03-05T09:20:44.032Z,3.18
2023-03-05T09:21:44.032Z,3.27
2023-03-05T09:22:44.045Z,3.39
2023-03-05T09:23:44.060Z,3.44
2023-03-05T09:24:44.073Z,3.51
2023-03-05T09:25:44.070Z,3.58
2023-03-05T09:26:44.080Z,3.65
2023-03-05T09:27:44.089Z,3.72
2023-03-05T09:28:44.095Z,3.78
2023-03-05T09:29:44.112Z,3.84
2023-03-05T09:30:44.142Z,3.85
2023-03-05T09:31:44.258Z,3.89
2023-03-05T09:32:44.171Z,3.92
2023-03-05T09:33:44.137Z,3.97
2023-03-05T09:34:44.142Z,4.02
2023-03-05T09:35:44.192Z,3.92
2023-03-05T09:36:44.154Z,3.80
2023-03-05T09:37:44.161Z,3.68
2023-03-05T09:38:44.164Z,3.61
2023-03-05T09:39:44.178Z,3.59
2023-03-05T09:40:44.184Z,3.57
2023-03-05T09:41:44.191Z,3.56
2023-03-05T09:42:44.196Z,3.54
2023-03-05T09:43:44.207Z,3.56
2023-03-05T09:44:44.216Z,3.61
2023-03-05T09:45:44.240Z,3.66
2023-03-05T09:46:44.240Z,3.75
2023-03-05T09:47:44.250Z,3.78
2023-03-05T09:48:44.265Z,3.83
2023-03-05T09:49:44.271Z,3.78
2023-03-05T09:50:44.278Z,3.85
2023-03-05T09:51:44.290Z,3.91
2023-03-05T09:52:44.313Z,3.92
2023-03-05T09:53:44.309Z,3.94
2023-03-05T09:54:44.313Z,3.94
2023-03-05T09:55:44.319Z,3.89
2023-03-05T09:56:44.333Z,3.93
2023-03-05T09:57:44.343Z,3.97
2023-03-05T09:58:44.349Z,3.99
2023-03-05T09:59:44.361Z,4.03
2023-03-05T10:00:44.369Z,4.01
2023-03-05T10:01:44.377Z,4.02
2023-03-05T10:02:44.430Z,4.07
2023-03-05T10:03:44.427Z,4.03
2023-03-05T10:04:44.409Z,4.02
2023-03-05T10:05:44.414Z,4.02
2023-03-05T10:06:44.421Z,4.03
2023-03-05T10:07:44.427Z,4.04
2023-03-05T10:08:44.436Z,4.11
2023-03-05T10:09:44.448Z,4.10
2023-03-05T10:10:44.455Z,4.15
2023-03-05T10:11:44.465Z,4.20
2023-03-05T10:12:44.491Z,4.24
2023-03-05T10:13:44.479Z,4.20
2023-03-05T10:14:44.491Z,4.18
2023-03-05T10:15:44.501Z,3.94
2023-03-05T10:16:44.546Z,3.80
2023-03-05T10:17:44.548Z,3.72
2023-03-05T10:18:44.542Z,3.54
2023-03-05T10:19:44.550Z,3.48
2023-03-05T10:20:44.585Z,3.45
2023-03-05T10:21:44.554Z,3.38
2023-03-05T10:22:44.560Z,3.25
2023-03-05T10:23:44.559Z,3.12
2023-03-05T10:24:44.574Z,2.93
2023-03-05T10:25:44.572Z,2.84
2023-03-05T10:26:44.577Z,2.72
2023-03-05T10:27:44.589Z,2.62
2023-03-05T10:28:44.592Z,2.54
2023-03-05T10:29:44.610Z,2.46
2023-03-05T10:30:44.628Z,2.43
2023-03-05T10:31:44.663Z,2.40
2023-03-05T10:32:44.667Z,2.37
2023-03-05T10:33:44.648Z,2.36
2023-03-05T10:34:44.660Z,2.36
2023-03-05T10:35:44.701Z,2.42
2023-03-05T10:36:44.685Z,2.47
2023-03-05T10:37:44.684Z,2.50
2023-03-05T10:38:44.698Z,2.55
2023-03-05T10:39:44.701Z,2.59
2023-03-05T10:40:44.715Z,2.62
2023-03-05T10:41:44.721Z,2.66
2023-03-05T10:42:44.730Z,2.68
2023-03-05T10:43:44.729Z,2.74
2023-03-05T10:44:44.740Z,2.84
2023-03-05T10:45:44.813Z,2.94
2023-03-05T10:46:44.755Z,3.07
2023-03-05T10:47:44.767Z,3.11
2023-03-05T10:48:44.767Z,3.14
2023-03-05T10:49:44.778Z,3.18
2023-03-05T10:50:44.788Z,3.28
2023-03-05T10:51:44.800Z,3.35
2023-03-05T10:52:44.807Z,3.48
2023-03-05T10:53:44.815Z,3.56
2023-03-05T10:54:44.826Z,3.57
2023-03-05T10:55:44.848Z,3.65
2023-03-05T10:56:44.847Z,3.68
2023-03-05T10:57:44.860Z,3.73
2023-03-05T10:58:44.872Z,3.77
2023-03-05T10:59:44.881Z,3.81
2023-03-05T11:00:44.894Z,3.87
2023-03-05T11:01:44.933Z,3.98
2023-03-05T11:02:44.934Z,4.12
2023-03-05T11:03:44.918Z,4.21
2023-03-05T11:04:44.922Z,4.26
2023-03-05T11:05:44.929Z,4.10
2023-03-05T11:06:44.938Z,4.12
2023-03-05T11:07:44.944Z,4.18
2023-03-05T11:08:44.954Z,4.26
2023-03-05T11:09:44.961Z,4.35
2023-03-05T11:10:44.971Z,4.42
2023-03-05T11:11:44.984Z,4.50
2023-03-05T11:12:44.983Z,4.54
2023-03-05T11:13:44.995Z,4.49
2023-03-05T11:14:45.001Z,4.31
2023-03-05T11:15:45.038Z,4.25
2023-03-05T11:16:45.020Z,4.23
2023-03-05T11:17:45.027Z,4.20
2023-03-05T11:18:45.042Z,4.12
2023-03-05T11:19:45.052Z,4.13
2023-03-05T11:20:45.060Z,4.07
2023-03-05T11:21:45.068Z,4.00
2023-03-05T11:22:45.077Z,3.93
2023-03-05T11:23:45.091Z,3.87
2023-03-05T11:24:45.103Z,3.85
2023-03-05T11:25:45.131Z,3.90
2023-03-05T11:26:45.129Z,3.89
2023-03-05T11:27:45.203Z,3.93
2023-03-05T11:28:45.140Z,3.99
2023-03-05T11:29:45.143Z,3.75
2023-03-05T11:30:45.194Z,3.15
2023-03-05T11:31:45.159Z,2.59
2023-03-05T11:32:45.163Z,1.96
2023-03-05T11:33:45.176Z,1.52
2023-03-05T11:34:45.184Z,1.18
2023-03-05T11:35:45.221Z,0.86
2023-03-05T11:36:45.198Z,0.57
2023-03-05T11:37:45.209Z,0.38
2023-03-05T11:38:45.214Z,0.28
2023-03-05T11:39:45.222Z,0.22
2023-03-05T11:40:45.232Z,0.18
2023-03-05T11:41:45.243Z,0.14
2023-03-05T11:42:45.260Z,0.17
2023-03-05T11:43:45.270Z,0.29
2023-03-05T11:44:45.276Z,0.35
2023-03-05T11:45:45.299Z,0.41
2023-03-05T11:46:45.291Z,0.41
2023-03-05T11:47:45.302Z,0.39
2023-03-05T11:48:45.310Z,0.35
2023-03-05T11:49:45.319Z,0.32
2023-03-05T11:50:45.326Z,0.35
2023-03-05T11:51:45.341Z,0.36
2023-03-05T11:52:45.355Z,0.37
2023-03-05T11:53:45.362Z,0.37
2023-03-05T11:54:45.376Z,0.39
2023-03-05T11:55:45.389Z,0.44
2023-03-05T11:56:45.393Z,0.47
2023-03-05T11:57:45.409Z,0.51
2023-03-05T11:58:45.428Z,0.56
2023-03-05T11:59:45.433Z,0.60
2023-03-05T12:00:45.438Z,0.65
2023-03-05T12:01:45.454Z,0.73
2023-03-05T12:02:45.523Z,0.80
2023-03-05T12:03:45.546Z,0.90
2023-03-05T12:04:45.483Z,0.96
2023-03-05T12:05:45.501Z,1.02
2023-03-05T12:06:45.866Z,1.10
2023-03-05T12:07:45.515Z,1.16
2023-03-05T12:08:45.516Z,1.19
2023-03-05T12:09:45.721Z,1.28
2023-03-05T12:10:45.538Z,1.41
2023-03-05T12:11:45.544Z,1.46
2023-03-05T12:12:45.566Z,1.57
2023-03-05T12:13:45.569Z,1.70
2023-03-05T12:14:45.583Z,1.78
2023-03-05T12:15:45.686Z,1.88
2023-03-05T12:16:45.603Z,2.02
2023-03-05T12:17:45.606Z,2.16
2023-03-05T12:18:45.615Z,2.35
2023-03-05T12:19:45.627Z,2.58
2023-03-05T12:20:45.660Z,2.80
2023-03-05T12:21:45.732Z,3.03
2023-03-05T12:22:45.644Z,3.22
2023-03-05T12:23:45.660Z,3.31
2023-03-05T12:24:45.670Z,3.33
2023-03-05T12:25:45.679Z,3.31
2023-03-05T12:26:45.691Z,3.38
2023-03-05T12:27:45.979Z,3.42
2023-03-05T12:28:45.703Z,3.52
2023-03-05T12:29:45.745Z,3.57
2023-03-05T12:30:45.967Z,3.71
2023-03-05T12:31:45.828Z,3.82
2023-03-05T12:32:46.353Z,3.77
2023-03-05T12:33:45.747Z,3.76
2023-03-05T12:34:45.759Z,3.65
2023-03-05T12:35:47.176Z,3.64
2023-03-05T12:36:46.426Z,3.60
2023-03-05T12:37:45.791Z,3.54
2023-03-05T12:38:46.236Z,3.57
2023-03-05T12:39:46.126Z,3.56
2023-03-05T12:40:45.827Z,3.50
2023-03-05T12:41:45.834Z,3.62
2023-03-05T12:42:45.848Z,3.73
2023-03-05T12:43:45.857Z,3.78
2023-03-05T12:44:45.866Z,3.80
2023-03-05T12:45:45.872Z,3.82
2023-03-05T12:46:45.937Z,3.80
2023-03-05T12:47:45.892Z,3.81
2023-03-05T12:48:45.940Z,3.84
2023-03-05T12:49:45.915Z,3.80
2023-03-05T12:50:45.921Z,3.82
2023-03-05T12:51:45.933Z,3.78
2023-03-05T12:52:45.946Z,3.61
2023-03-05T12:53:45.963Z,3.48
2023-03-05T12:54:45.967Z,3.28
2023-03-05T12:55:46.053Z,3.15
2023-03-05T12:56:45.994Z,2.91
2023-03-05T12:57:45.987Z,2.83
2023-03-05T12:58:45.996Z,2.76
2023-03-05T12:59:46.011Z,2.74
2023-03-05T13:00:46.033Z,2.73
2023-03-05T13:01:46.023Z,2.81
2023-03-05T13:02:46.047Z,2.91
2023-03-05T13:03:46.058Z,3.02
2023-03-05T13:04:46.051Z,3.12
2023-03-05T13:05:46.054Z,3.17
2023-03-05T13:06:46.075Z,3.10
2023-03-05T13:07:46.071Z,3.11
2023-03-05T13:08:46.080Z,3.10
2023-03-05T13:09:46.087Z,3.04
2023-03-05T13:10:46.086Z,3.05
2023-03-05T13:11:46.109Z,3.03
2023-03-05T13:12:46.102Z,2.97
2023-03-05T13:13:46.114Z,2.87
2023-03-05T13:14:46.124Z,2.80
2023-03-05T13:15:46.138Z,2.74
2023-03-05T13:16:46.202Z,2.70
2023-03-05T13:17:46.157Z,2.68
2023-03-05T13:18:46.171Z,2.65
2023-03-05T13:19:46.180Z,2.59
2023-03-05T13:20:46.192Z,2.56
2023-03-05T13:21:46.197Z,2.54
2023-03-05T13:22:46.204Z,2.59
2023-03-05T13:23:46.213Z,2.62
2023-03-05T13:24:46.223Z,2.70
2023-03-05T13:25:46.226Z,2.73
2023-03-05T13:26:46.243Z,2.78
2023-03-05T13:27:46.251Z,2.83
2023-03-05T13:28:46.263Z,2.90
2023-03-05T13:29:46.268Z,2.95
2023-03-05T13:30:46.280Z,3.02
2023-03-05T13:31:46.452Z,3.08
2023-03-05T13:32:46.302Z,3.16
2023-03-05T13:33:46.313Z,3.21
2023-03-05T13:34:47.961Z,3.25
2023-03-05T13:35:46.363Z,3.26